createdAt,value
2023-04-07T00:02:23.510Z,9.38
2023-04-07T00:06:25.557Z,9.32
2023-04-07T00:10:27.194Z,9.31
2023-04-07T00:14:29.037Z,9.32
2023-04-07T00:18:31.058Z,9.30
2023-04-07T00:22:32.626Z,9.24
2023-04-07T00:26:35.263Z,9.24
2023-04-07T00:30:36.777Z,9.24
2023-04-07T00:34:38.341Z,9.23
2023-04-07T00:38:39.868Z,9.19
2023-04-07T00:42:41.430Z,9.15
2023-04-07T00:46:43.344Z,9.13
2023-04-07T00:50:48.074Z,9.15
2023-04-07T00:54:49.799Z,9.10
2023-04-07T00:58:51.685Z,9.08
2023-04-07T01:03:01.784Z,9.17
2023-04-07T01:07:11.437Z,9.22
2023-04-07T01:11:24.826Z,9.19
2023-04-07T01:15:30.190Z,9.20
2023-04-07T01:20:07.851Z,9.17
2023-04-07T01:24:16.707Z,9.19
2023-04-07T01:28:39.866Z,9.19
2023-04-07T01:32:45.285Z,9.19
2023-04-07T01:36:47.560Z,9.23
2023-04-07T01:40:49.668Z,9.17
2023-04-07T01:44:53.044Z,9.16
2023-04-07T01:48:55.916Z,9.16
2023-04-07T01:52:57.765Z,9.16
2023-04-07T01:56:59.372Z,9.15
2023-04-07T02:01:01.355Z,9.13
2023-04-07T02:05:07.378Z,9.13
2023-04-07T02:09:13.090Z,9.13
2023-04-07T02:13:18.745Z,9.10
2023-04-07T02:17:24.522Z,9.06
2023-04-07T02:21:28.201Z,9.03
2023-04-07T02:25:32.264Z,9.06
2023-04-07T02:29:33.890Z,9.06
2023-04-07T02:33:35.488Z,9.06
2023-04-07T02:37:37.008Z,9.01
2023-04-07T02:41:38.506Z,9.00
2023-04-07T02:45:40.250Z,9.00
2023-04-07T02:49:41.786Z,8.97
2023-04-07T02:53:43.346Z,8.91
2023-04-07T02:57:45.636Z,8.85
2023-04-07T03:01:58.031Z,8.82
2023-04-07T03:06:00.138Z,8.82
2023-04-07T03:10:02.033Z,8.82
2023-04-07T03:14:06.880Z,8.82
2023-04-07T03:18:14.712Z,8.83
2023-04-07T03:22:17.911Z,8.80
2023-04-07T03:26:24.341Z,8.78
2023-04-07T03:30:27.408Z,8.76
2023-04-07T03:34:28.962Z,8.73
2023-04-07T03:38:33.058Z,8.71
2023-04-07T03:42:37.215Z,8.70
2023-04-07T03:46:41.723Z,8.76
2023-04-07T03:50:46.081Z,8.79
2023-04-07T03:54:51.220Z,8.80
2023-04-07T03:58:56.189Z,8.80
2023-04-07T04:03:04.659Z,8.79
2023-04-07T04:07:07.860Z,8.79
2023-04-07T04:11:29.668Z,8.82
2023-04-07T04:15:35.285Z,8.82
2023-04-07T04:19:39.958Z,8.83
2023-04-07T04:23:49.578Z,8.85
2023-04-07T04:27:52.099Z,8.85
2023-04-07T04:31:59.857Z,8.88
2023-04-07T04:36:01.780Z,8.83
2023-04-07T04:40:08.285Z,8.79
2023-04-07T04:44:11.014Z,8.73
2023-04-07T04:48:15.512Z,8.71
2023-04-07T04:52:17.187Z,8.73
2023-04-07T04:56:21.891Z,8.73
2023-04-07T05:00:24.996Z,8.68
2023-04-07T05:04:32.607Z,8.65
2023-04-07T05:08:46.232Z,8.61
2023-04-07T05:12:49.554Z,8.61
2023-04-07T05:16:51.404Z,8.60
2023-04-07T05:20:57.157Z,8.60
2023-04-07T05:25:00.738Z,8.61
2023-04-07T05:29:02.754Z,8.60
2023-04-07T05:33:04.594Z,8.57
2023-04-07T05:37:24.614Z,8.55
2023-04-07T05:41:26.318Z,8.55
2023-04-07T05:45:27.957Z,8.57
2023-04-07T05:49:30.068Z,8.60
2023-04-07T05:53:38.996Z,8.64
2023-04-07T05:57:41.767Z,8.61
2023-04-07T06:01:44.501Z,8.64
2023-04-07T06:05:47.118Z,8.70
2023-04-07T06:09:49.317Z,8.76
2023-04-07T06:13:51.236Z,8.82
2023-04-07T06:17:53.068Z,8.86
2023-04-07T06:21:54.809Z,8.96
2023-04-07T06:25:56.456Z,9.01
2023-04-07T06:29:58.030Z,9.00
2023-04-07T06:33:59.585Z,8.97
2023-04-07T06:38:02.153Z,8.97
2023-04-07T06:42:03.724Z,8.97
2023-04-07T06:46:11.725Z,8.97
2023-04-07T06:50:13.426Z,8.98
2023-04-07T06:54:15.423Z,9.00
2023-04-07T06:58:17.326Z,9.00
2023-04-07T07:02:19.158Z,9.01
2023-04-07T07:06:21.049Z,9.04
2023-04-07T07:10:22.767Z,9.13
2023-04-07T07:14:24.331Z,9.22
2023-04-07T07:18:25.984Z,9.27
2023-04-07T07:22:27.542Z,9.32
2023-04-07T07:26:29.180Z,9.40
2023-04-07T07:30:31.576Z,9.48
2023-04-07T07:34:33.202Z,9.52
2023-04-07T07:38:36.189Z,9.56
2023-04-07T07:42:39.341Z,9.65
2023-04-07T07:46:41.309Z,9.73
2023-04-07T07:50:44.473Z,9.85
2023-04-07T07:54:46.400Z,9.96
2023-04-07T07:58:47.983Z,10.07
2023-04-07T08:02:49.748Z,10.18
2023-04-07T08:06:51.657Z,10.35
2023-04-07T08:10:53.354Z,10.55
2023-04-07T08:14:54.909Z,10.86
2023-04-07T08:18:56.536Z,11.17
2023-04-07T08:22:58.345Z,11.41
2023-04-07T08:26:59.951Z,11.78
2023-04-07T08:31:01.675Z,12.07
2023-04-07T08:35:03.673Z,12.21
2023-04-07T08:39:05.750Z,12.26
2023-04-07T08:43:09.547Z,12.43
2023-04-07T08:47:11.608Z,12.59
2023-04-07T08:51:14.559Z,12.58
2023-04-07T08:55:16.452Z,12.62
2023-04-07T08:59:18.706Z,12.71
2023-04-07T09:03:21.362Z,12.74
2023-04-07T09:07:22.969Z,12.69
2023-04-07T09:11:26.883Z,12.69
2023-04-07T09:15:32.188Z,12.87
2023-04-07T09:19:34.102Z,13.09
2023-04-07T09:23:38.579Z,13.19
2023-04-07T09:27:40.209Z,13.36
2023-04-07T09:31:52.142Z,13.35
2023-04-07T09:35:54.447Z,13.29
2023-04-07T09:39:56.274Z,13.25
2023-04-07T09:43:58.409Z,13.13
2023-04-07T09:48:00.454Z,13.17
2023-04-07T09:52:07.841Z,13.32
2023-04-07T09:56:10.956Z,13.39
2023-04-07T10:00:12.908Z,13.32
2023-04-07T10:04:14.657Z,13.29
2023-04-07T10:08:16.287Z,13.25
2023-04-07T10:12:18.895Z,13.24
2023-04-07T10:16:22.660Z,13.22
2023-04-07T10:20:24.502Z,13.14
2023-04-07T10:24:41.586Z,13.06
2023-04-07T10:28:46.095Z,13.13
2023-04-07T10:32:49.164Z,13.13
2023-04-07T10:37:14.050Z,13.09
2023-04-07T10:41:43.387Z,13.19
2023-04-07T10:45:57.910Z,13.25
2023-04-07T10:50:12.610Z,13.16
2023-04-07T10:54:21.142Z,13.10
2023-04-07T10:58:28.817Z,13.04
2023-04-07T11:02:31.074Z,13.12
2023-04-07T11:06:32.837Z,13.14
2023-04-07T11:10:35.752Z,13.29
2023-04-07T11:14:37.682Z,13.46
2023-04-07T11:18:40.118Z,13.63
2023-04-07T11:22:41.649Z,13.63
2023-04-07T11:26:43.620Z,13.61
2023-04-07T11:30:53.868Z,13.68
2023-04-07T11:34:55.998Z,13.61
2023-04-07T11:38:58.395Z,13.69
2023-04-07T11:43:00.325Z,13.73
2023-04-07T11:47:03.655Z,13.83
2023-04-07T11:51:06.723Z,13.90
2023-04-07T11:55:22.456Z,13.96
2023-04-07T11:59:25.439Z,13.96
2023-04-07T12:03:27.489Z,13.83
2023-04-07T12:07:29.198Z,13.93
2023-04-07T12:11:31.811Z,14.11
2023-04-07T12:15:33.391Z,14.12
2023-04-07T12:19:35.836Z,14.16
2023-04-07T12:23:37.845Z,14.19
2023-04-07T12:27:43.568Z,14.21
2023-04-07T12:31:45.811Z,14.24
2023-04-07T12:35:47.461Z,14.26
2023-04-07T12:39:49.023Z,14.36
2023-04-07T12:43:51.031Z,14.30
2023-04-07T12:47:52.658Z,14.29
2023-04-07T12:51:54.228Z,14.19
2023-04-07T12:55:56.866Z,14.09
2023-04-07T12:59:58.859Z,13.94
2023-04-07T13:04:00.919Z,13.84
2023-04-07T13:08:03.000Z,13.86
2023-04-07T13:12:04.659Z,13.87
2023-04-07T13:16:06.150Z,13.93
2023-04-07T13:20:08.094Z,14.09
2023-04-07T13:24:09.773Z,14.08
2023-04-07T13:28:11.405Z,14.16
2023-04-07T13:32:13.205Z,14.09
2023-04-07T13:36:14.932Z,14.38
2023-04-07T13:40:16.575Z,14.59
2023-04-07T13:44:18.114Z,14.64
2023-04-07T13:48:19.658Z,14.64
2023-04-07T13:52:21.791Z,14.61
2023-04-07T13:56:23.459Z,14.48
2023-04-07T14:00:25.483Z,14.48
2023-04-07T14:04:27.395Z,15.07
2023-04-07T14:08:29.341Z,15.58
2023-04-07T14:12:30.991Z,15.35
2023-04-07T14:16:32.807Z,15.09
2023-04-07T14:20:34.428Z,14.91
2023-04-07T14:24:35.991Z,14.98
2023-04-07T14:28:37.734Z,15.22
2023-04-07T14:32:39.420Z,15.60
2023-04-07T14:36:41.083Z,15.56
2023-04-07T14:40:42.815Z,15.37
2023-04-07T14:44:44.499Z,15.30
2023-04-07T14:48:46.426Z,15.30
2023-04-07T14:52:47.979Z,15.18
2023-04-07T14:56:49.583Z,15.07
2023-04-07T15:00:51.230Z,14.85
2023-04-07T15:04:52.979Z,14.69
2023-04-07T15:08:54.751Z,14.93
2023-04-07T15:12:56.413Z,15.37
2023-04-07T15:16:58.082Z,15.31
2023-04-07T15:20:59.611Z,15.04
2023-04-07T15:25:01.689Z,14.60
2023-04-07T15:29:03.311Z,14.29
2023-04-07T15:33:05.025Z,14.04
2023-04-07T15:37:06.751Z,14.02
2023-04-07T15:41:08.290Z,14.01
2023-04-07T15:45:10.520Z,13.94
2023-04-07T15:49:12.121Z,13.86
2023-04-07T15:53:13.924Z,13.80
2023-04-07T15:57:16.731Z,13.71
2023-04-07T16:01:18.404Z,13.53
2023-04-07T16:05:20.246Z,13.53
2023-04-07T16:09:21.883Z,13.51
2023-04-07T16:13:23.477Z,13.51
2023-04-07T16:17:25.029Z,13.51
2023-04-07T16:21:27.394Z,13.65
2023-04-07T16:25:29.958Z,13.59
2023-04-07T16:29:31.447Z,13.61
2023-04-07T16:33:32.972Z,13.73
2023-04-07T16:37:34.661Z,13.79
2023-04-07T16:41:36.265Z,13.75
2023-04-07T16:45:38.252Z,13.69
2023-04-07T16:49:39.901Z,13.59
2023-04-07T16:53:41.407Z,13.47
2023-04-07T16:57:42.993Z,13.53
2023-04-07T17:01:44.838Z,13.55
2023-04-07T17:05:47.140Z,13.50
2023-04-07T17:09:48.660Z,13.38
2023-04-07T17:13:56.350Z,13.28
2023-04-07T17:17:59.713Z,13.06
2023-04-07T17:22:01.296Z,12.99
2023-04-07T17:26:02.841Z,12.88
2023-04-07T17:30:05.305Z,12.85
2023-04-07T17:34:06.972Z,12.79
2023-04-07T17:38:08.535Z,12.77
2023-04-07T17:42:11.186Z,12.76
2023-04-07T17:46:12.812Z,12.74
2023-04-07T17:50:16.213Z,12.70
2023-04-07T17:54:17.912Z,12.67
2023-04-07T17:58:20.959Z,12.62
2023-04-07T18:02:22.828Z,12.62
2023-04-07T18:06:24.568Z,12.61
2023-04-07T18:10:27.929Z,12.61
2023-04-07T18:14:29.492Z,12.59
2023-04-07T18:18:31.025Z,12.55
2023-04-07T18:22:32.918Z,12.51
2023-04-07T18:26:36.649Z,12.41
2023-04-07T18:30:39.008Z,12.38
2023-04-07T18:34:40.869Z,12.37
2023-04-07T18:38:42.452Z,12.31
2023-04-07T18:42:44.219Z,12.34
2023-04-07T18:46:46.402Z,12.31
2023-04-07T18:50:52.927Z,12.30
2023-04-07T18:54:54.560Z,12.23
2023-04-07T18:58:56.134Z,12.21
2023-04-07T19:02:57.821Z,12.19
2023-04-07T19:06:59.932Z,12.18
2023-04-07T19:11:01.597Z,12.13
2023-04-07T19:15:03.570Z,12.08
2023-04-07T19:19:05.453Z,12.03
2023-04-07T19:23:07.871Z,12.01
2023-04-07T19:27:11.248Z,12.00
2023-04-07T19:31:12.950Z,11.98
2023-04-07T19:35:15.660Z,11.98
2023-04-07T19:39:17.273Z,11.97
2023-04-07T19:43:20.043Z,11.93
2023-04-07T19:47:21.727Z,11.97
2023-04-07T19:51:23.386Z,11.97
2023-04-07T19:55:25.352Z,11.96
2023-04-07T19:59:27.004Z,11.93
2023-04-07T20:03:28.820Z,11.94
2023-04-07T20:07:31.386Z,11.94
2023-04-07T20:11:33.015Z,11.93
2023-04-07T20:15:34.835Z,11.87
2023-04-07T20:19:36.673Z,11.82
2023-04-07T20:23:38.617Z,11.78
2023-04-07T20:27:40.220Z,11.75
2023-04-07T20:31:41.841Z,11.74
2023-04-07T20:35:43.534Z,11.70
2023-04-07T20:39:45.324Z,11.67
2023-04-07T20:43:46.931Z,11.64
2023-04-07T20:47:50.125Z,11.63
2023-04-07T20:51:51.740Z,11.60
2023-04-07T20:55:53.442Z,11.57
2023-04-07T20:59:55.257Z,11.49
2023-04-07T21:03:57.102Z,11.38
2023-04-07T21:07:59.000Z,11.33
2023-04-07T21:12:03.385Z,11.30
2023-04-07T21:16:05.833Z,11.30
2023-04-07T21:20:08.232Z,11.28
2023-04-07T21:24:09.800Z,11.23
2023-04-07T21:28:11.368Z,11.23
2023-04-07T21:32:13.992Z,11.17
2023-04-07T21:36:15.574Z,11.13
2023-04-07T21:40:17.105Z,11.09
2023-04-07T21:44:20.967Z,11.02
2023-04-07T21:48:23.501Z,10.93
2023-04-07T21:52:26.345Z,10.90
2023-04-07T21:56:28.932Z,10.87
2023-04-07T22:00:31.346Z,10.86
2023-04-07T22:04:33.035Z,10.78
2023-04-07T22:08:34.724Z,10.76
2023-04-07T22:12:36.471Z,10.68
2023-04-07T22:16:38.280Z,10.68
2023-04-07T22:20:39.983Z,10.66
2023-04-07T22:24:41.659Z,10.62
2023-04-07T22:28:43.407Z,10.55
2023-04-07T22:32:44.983Z,10.51
2023-04-07T22:36:47.024Z,10.43
2023-04-07T22:40:48.748Z,10.32
2023-04-07T22:44:50.538Z,10.25
2023-04-07T22:48:52.234Z,10.18
2023-04-07T22:52:53.843Z,10.16
2023-04-07T22:56:55.946Z,10.09
2023-04-07T23:00:57.747Z,10.06
2023-04-07T23:04:59.316Z,9.96
2023-04-07T23:09:01.119Z,9.95
2023-04-07T23:13:02.774Z,9.93
2023-04-07T23:17:04.478Z,9.96
2023-04-07T23:21:06.470Z,9.98
2023-04-07T23:25:08.416Z,9.93
2023-04-07T23:29:09.963Z,9.85
2023-04-07T23:33:12.438Z,9.86
2023-04-07T23:37:13.925Z,9.78
2023-04-07T23:41:15.510Z,9.77
2023-04-07T23:45:18.721Z,9.73
2023-04-07T23:49:22.246Z,9.67
2023-04-07T23:53:23.985Z,9.68
2023-04-07T23:57:25.542Z,9.65
